createdAt,value
2022-11-25T03:59:49.174Z,1005.24
2022-11-25T04:00:49.112Z,1005.27
2022-11-25T04:01:49.136Z,1005.26
2022-11-25T04:02:49.188Z,1005.29
2022-11-25T04:03:49.080Z,1005.25
2022-11-25T04:04:49.084Z,1005.26
2022-11-25T04:05:49.078Z,1005.26
2022-11-25T04:06:49.171Z,1005.27
2022-11-25T04:07:52.252Z,1005.26
2022-11-25T04:08:49.054Z,1005.32
2022-11-25T04:09:49.063Z,1005.28
2022-11-25T04:10:49.032Z,1005.29
2022-11-25T04:11:49.048Z,1005.32
2022-11-25T04:12:49.094Z,1005.32
2022-11-25T04:13:49.028Z,1005.33
2022-11-25T04:14:49.019Z,1005.35
2022-11-25T04:15:49.049Z,1005.33
2022-11-25T04:16:49.065Z,1005.36
2022-11-25T04:17:49.178Z,1005.38
2022-11-25T04:18:48.998Z,1005.36
2022-11-25T04:19:49.023Z,1005.33
2022-11-25T04:20:48.995Z,1005.37
2022-11-25T04:21:52.269Z,1005.36
2022-11-25T04:22:48.990Z,1005.31
2022-11-25T04:23:48.985Z,1005.31
2022-11-25T04:24:48.963Z,1005.32
2022-11-25T04:25:48.964Z,1005.34
2022-11-25T04:26:48.987Z,1005.37
2022-11-25T04:27:48.944Z,1005.40
2022-11-25T04:28:48.947Z,1005.36
2022-11-25T04:29:48.977Z,1005.33
2022-11-25T04:30:49.020Z,1005.36
2022-11-25T04:31:48.941Z,1005.33
2022-11-25T04:32:48.945Z,1005.33
2022-11-25T04:33:52.534Z,1005.40
2022-11-25T04:34:48.937Z,1005.36
2022-11-25T04:35:48.918Z,1005.42
2022-11-25T04:36:48.956Z,1005.43
2022-11-25T04:37:48.914Z,1005.39
2022-11-25T04:38:48.911Z,1005.41
2022-11-25T04:39:48.904Z,1005.40
2022-11-25T04:40:48.901Z,1005.43
2022-11-25T04:41:48.890Z,1005.40
2022-11-25T04:42:48.888Z,1005.50
2022-11-25T04:43:48.887Z,1005.49
2022-11-25T04:45:07.566Z,1005.46
2022-11-25T04:46:13.176Z,1005.48
2022-11-25T04:46:48.907Z,1005.49
2022-11-25T04:47:48.880Z,1005.53
2022-11-25T04:48:48.889Z,1005.50
2022-11-25T04:49:48.860Z,1005.50
2022-11-25T04:50:48.849Z,1005.52
2022-11-25T04:51:48.865Z,1005.57
2022-11-25T04:52:48.863Z,1005.58
2022-11-25T04:53:48.845Z,1005.58
2022-11-25T04:54:48.846Z,1005.58
2022-11-25T04:55:48.834Z,1005.55
2022-11-25T04:56:48.824Z,1005.55
2022-11-25T04:57:48.827Z,1005.53
2022-11-25T04:58:48.820Z,1005.60
2022-11-25T04:59:48.852Z,1005.62
2022-11-25T05:00:48.812Z,1005.64
2022-11-25T05:01:48.893Z,1005.66
2022-11-25T05:02:49.747Z,1005.58
2022-11-25T05:03:51.905Z,1005.59
2022-11-25T05:04:48.801Z,1005.61
2022-11-25T05:05:48.816Z,1005.64
2022-11-25T05:06:48.797Z,1005.63
2022-11-25T05:07:48.847Z,1005.60
2022-11-25T05:08:48.828Z,1005.61
2022-11-25T05:09:48.793Z,1005.62
2022-11-25T05:10:48.782Z,1005.56
2022-11-25T05:11:48.788Z,1005.60
2022-11-25T05:12:48.771Z,1005.65
2022-11-25T05:13:48.776Z,1005.67
2022-11-25T05:14:48.759Z,1005.65
2022-11-25T05:15:48.750Z,1005.65
2022-11-25T05:16:48.835Z,1005.72
2022-11-25T05:17:48.752Z,1005.67
2022-11-25T05:18:48.749Z,1005.64
2022-11-25T05:19:48.747Z,1005.65
2022-11-25T05:20:48.729Z,1005.65
2022-11-25T05:21:48.738Z,1005.68
2022-11-25T05:22:48.734Z,1005.67
2022-11-25T05:23:52.955Z,1005.66
2022-11-25T05:24:48.713Z,1005.63
2022-11-25T05:25:48.722Z,1005.63
2022-11-25T05:26:48.711Z,1005.61
2022-11-25T05:27:48.703Z,1005.64
2022-11-25T05:28:48.700Z,1005.62
2022-11-25T05:29:52.924Z,1005.62
2022-11-25T05:30:48.766Z,1005.67
2022-11-25T05:31:48.709Z,1005.64
2022-11-25T05:32:48.683Z,1005.61
2022-11-25T05:33:48.685Z,1005.63
2022-11-25T05:34:48.677Z,1005.62
2022-11-25T05:35:48.753Z,1005.64
2022-11-25T05:36:48.688Z,1005.68
2022-11-25T05:37:48.710Z,1005.68
2022-11-25T05:38:48.661Z,1005.67
2022-11-25T05:39:48.676Z,1005.65
2022-11-25T05:40:48.661Z,1005.67
2022-11-25T05:41:48.668Z,1005.72
2022-11-25T05:42:48.657Z,1005.70
2022-11-25T05:43:48.641Z,1005.71
2022-11-25T05:44:48.666Z,1005.67
2022-11-25T05:45:48.668Z,1005.67
2022-11-25T05:46:48.665Z,1005.69
2022-11-25T05:47:48.619Z,1005.74
2022-11-25T05:48:48.720Z,1005.74
2022-11-25T05:49:48.616Z,1005.71
2022-11-25T05:50:48.621Z,1005.75
2022-11-25T05:51:48.627Z,1005.77
2022-11-25T05:52:48.604Z,1005.71
2022-11-25T05:53:48.593Z,1005.74
2022-11-25T05:54:49.309Z,1005.76
2022-11-25T05:55:48.598Z,1005.77
2022-11-25T05:56:48.595Z,1005.77
2022-11-25T05:57:48.586Z,1005.75
2022-11-25T05:58:48.583Z,1005.75
2022-11-25T05:59:48.575Z,1005.74
2022-11-25T06:00:48.567Z,1005.78
2022-11-25T06:01:48.566Z,1005.76
2022-11-25T06:02:48.704Z,1005.79
2022-11-25T06:03:48.728Z,1005.74
2022-11-25T06:04:48.559Z,1005.75
2022-11-25T06:05:48.547Z,1005.76
2022-11-25T06:06:48.551Z,1005.74
2022-11-25T06:07:48.637Z,1005.71
2022-11-25T06:08:48.543Z,1005.70
2022-11-25T06:09:48.542Z,1005.71
2022-11-25T06:10:48.539Z,1005.67
2022-11-25T06:11:48.538Z,1005.69
2022-11-25T06:12:48.539Z,1005.66
2022-11-25T06:13:48.543Z,1005.71
2022-11-25T06:14:48.521Z,1005.69
2022-11-25T06:15:48.551Z,1005.72
2022-11-25T06:16:48.525Z,1005.77
2022-11-25T06:17:48.511Z,1005.79
2022-11-25T06:18:48.532Z,1005.77
2022-11-25T06:19:48.501Z,1005.77
2022-11-25T06:20:48.524Z,1005.77
2022-11-25T06:21:48.520Z,1005.79
2022-11-25T06:22:48.480Z,1005.80
2022-11-25T06:23:48.498Z,1005.74
2022-11-25T06:24:55.367Z,1005.78
2022-11-25T06:25:48.477Z,1005.78
2022-11-25T06:26:48.471Z,1005.80
2022-11-25T06:28:11.919Z,1005.79
2022-11-25T06:28:48.465Z,1005.82
2022-11-25T06:29:48.464Z,1005.80
2022-11-25T06:30:48.476Z,1005.81
2022-11-25T06:31:48.451Z,1005.79
2022-11-25T06:32:48.459Z,1005.83
2022-11-25T06:33:48.470Z,1005.81
2022-11-25T06:34:48.437Z,1005.83
2022-11-25T06:35:48.467Z,1005.81
2022-11-25T06:36:48.430Z,1005.82
2022-11-25T06:37:48.439Z,1005.83
2022-11-25T06:38:48.426Z,1005.87
2022-11-25T06:39:48.461Z,1005.83
2022-11-25T06:40:48.407Z,1005.82
2022-11-25T06:41:48.427Z,1005.80
2022-11-25T06:42:48.419Z,1005.82
2022-11-25T06:43:48.662Z,1005.79
2022-11-25T06:44:48.393Z,1005.78
2022-11-25T06:45:48.393Z,1005.78
2022-11-25T06:46:49.484Z,1005.81
2022-11-25T06:47:48.848Z,1005.77
2022-11-25T06:48:53.361Z,1005.84
2022-11-25T06:49:48.377Z,1005.84
2022-11-25T06:50:48.405Z,1005.83
2022-11-25T06:51:48.422Z,1005.86
2022-11-25T06:52:48.414Z,1005.88
2022-11-25T06:53:55.440Z,1005.92
2022-11-25T06:54:48.435Z,1005.95
2022-11-25T06:55:48.491Z,1005.94
2022-11-25T06:56:51.904Z,1006.03
2022-11-25T06:59:09.379Z,1006.01
2022-11-25T07:00:24.353Z,1006.03
2022-11-25T07:01:10.003Z,1006.07
2022-11-25T07:01:48.487Z,1006.05
2022-11-25T07:02:50.354Z,1006.11
2022-11-25T07:03:48.333Z,1006.15
2022-11-25T07:04:48.343Z,1006.17
2022-11-25T07:05:48.327Z,1006.19
2022-11-25T07:06:48.335Z,1006.16
2022-11-25T07:07:48.364Z,1006.18
2022-11-25T07:08:48.314Z,1006.21
2022-11-25T07:09:48.293Z,1006.23
2022-11-25T07:10:48.296Z,1006.20
2022-11-25T07:12:48.290Z,1006.28
2022-11-25T07:13:48.291Z,1006.25
2022-11-25T07:14:48.339Z,1006.30
2022-11-25T07:15:48.389Z,1006.32
2022-11-25T07:16:48.266Z,1006.28
2022-11-25T07:17:48.280Z,1006.33
2022-11-25T07:18:48.264Z,1006.35
2022-11-25T07:19:48.289Z,1006.37
2022-11-25T07:20:48.275Z,1006.39
2022-11-25T07:21:52.905Z,1006.42
2022-11-25T07:22:48.250Z,1006.44
2022-11-25T07:23:48.240Z,1006.44
2022-11-25T07:24:48.241Z,1006.44
2022-11-25T07:25:48.274Z,1006.43
2022-11-25T07:26:48.329Z,1006.47
2022-11-25T07:27:48.229Z,1006.49
2022-11-25T07:28:48.247Z,1006.53
2022-11-25T07:30:03.484Z,1006.56
2022-11-25T07:31:22.873Z,1006.53
2022-11-25T07:31:48.266Z,1006.61
2022-11-25T07:32:48.232Z,1006.60
2022-11-25T07:33:48.218Z,1006.66
2022-11-25T07:34:48.197Z,1006.62
2022-11-25T07:35:48.213Z,1006.66
2022-11-25T07:36:48.242Z,1006.63
2022-11-25T07:37:50.059Z,1006.62
2022-11-25T07:38:48.183Z,1006.65
2022-11-25T07:39:48.182Z,1006.66
2022-11-25T07:40:48.173Z,1006.67
2022-11-25T07:41:48.193Z,1006.66
2022-11-25T07:42:48.164Z,1006.68
2022-11-25T07:43:48.333Z,1006.65
2022-11-25T07:45:48.551Z,1006.71
2022-11-25T07:46:49.619Z,1006.76
2022-11-25T07:47:48.137Z,1006.78
2022-11-25T07:48:48.174Z,1006.84
2022-11-25T07:49:48.255Z,1006.78
2022-11-25T07:50:48.220Z,1006.86
2022-11-25T07:51:48.132Z,1006.84
2022-11-25T07:52:48.139Z,1006.84
2022-11-25T07:53:48.181Z,1006.88
2022-11-25T07:54:48.115Z,1006.86
2022-11-25T07:55:48.116Z,1006.88
2022-11-25T07:56:48.189Z,1006.92
2022-11-25T07:57:48.264Z,1006.91
2022-11-25T07:58:48.099Z,1006.93
2022-11-25T07:59:49.415Z,1006.90
2022-11-25T08:00:48.089Z,1006.96
2022-11-25T08:01:48.161Z,1006.92
2022-11-25T08:02:48.168Z,1006.93
2022-11-25T08:03:48.078Z,1006.95
2022-11-25T08:04:48.154Z,1006.98
2022-11-25T08:05:48.375Z,1006.96
2022-11-25T08:06:48.073Z,1007.01
2022-11-25T08:07:48.196Z,1007.01
2022-11-25T08:08:48.094Z,1007.01
2022-11-25T08:09:48.087Z,1006.99
2022-11-25T08:10:48.065Z,1006.98
2022-11-25T08:11:48.078Z,1007.00
2022-11-25T08:12:48.045Z,1007.00
2022-11-25T08:13:48.045Z,1007.02
2022-11-25T08:14:48.041Z,1007.07
2022-11-25T08:15:48.139Z,1007.08
2022-11-25T08:16:48.031Z,1007.08
2022-11-25T08:17:48.051Z,1007.06
2022-11-25T08:18:48.227Z,1007.12
2022-11-25T08:19:48.060Z,1007.13
2022-11-25T08:20:48.017Z,1007.12
2022-11-25T08:21:48.192Z,1007.09
2022-11-25T08:22:48.014Z,1007.19
2022-11-25T08:23:48.086Z,1007.19
2022-11-25T08:24:47.998Z,1007.20
2022-11-25T08:25:50.638Z,1007.22
2022-11-25T08:26:47.991Z,1007.20
2022-11-25T08:27:48.209Z,1007.25
2022-11-25T08:28:48.909Z,1007.25
2022-11-25T08:29:48.363Z,1007.26
2022-11-25T08:30:48.178Z,1007.25
2022-11-25T08:31:48.077Z,1007.28
2022-11-25T08:32:50.794Z,1007.32
2022-11-25T08:33:50.326Z,1007.32
2022-11-25T08:34:48.663Z,1007.34
2022-11-25T08:35:48.104Z,1007.36
2022-11-25T08:36:55.983Z,1007.36
2022-11-25T08:37:49.093Z,1007.39
2022-11-25T08:38:47.981Z,1007.39
2022-11-25T08:39:52.743Z,1007.44
2022-11-25T08:40:47.993Z,1007.45
2022-11-25T08:41:53.854Z,1007.44
2022-11-25T08:42:47.948Z,1007.45
2022-11-25T08:43:47.957Z,1007.45
2022-11-25T08:44:47.924Z,1007.44
2022-11-25T08:45:48.020Z,1007.44
2022-11-25T08:46:48.025Z,1007.43
2022-11-25T08:47:49.760Z,1007.43
2022-11-25T08:48:48.229Z,1007.43
2022-11-25T08:49:48.511Z,1007.41
2022-11-25T08:50:48.099Z,1007.42
2022-11-25T08:51:48.065Z,1007.42
2022-11-25T08:52:50.454Z,1007.43
2022-11-25T08:53:47.916Z,1007.42
2022-11-25T08:54:50.649Z,1007.47
2022-11-25T08:55:47.949Z,1007.50
2022-11-25T08:56:52.083Z,1007.49
2022-11-25T08:57:48.159Z,1007.50
2022-11-25T08:58:53.531Z,1007.47
2022-11-25T08:59:47.963Z,1007.51
2022-11-25T09:00:47.885Z,1007.52
2022-11-25T09:01:50.653Z,1007.48
2022-11-25T09:02:48.019Z,1007.50
2022-11-25T09:03:48.036Z,1007.50
2022-11-25T09:04:48.067Z,1007.49
2022-11-25T09:05:47.863Z,1007.49
2022-11-25T09:06:47.956Z,1007.48
2022-11-25T09:07:48.079Z,1007.55
2022-11-25T09:09:47.973Z,1007.56
2022-11-25T09:10:47.901Z,1007.54
2022-11-25T09:11:47.969Z,1007.51
2022-11-25T09:12:47.866Z,1007.54
2022-11-25T09:13:47.912Z,1007.57
2022-11-25T09:14:50.731Z,1007.55
2022-11-25T09:16:03.760Z,1007.56
2022-11-25T09:16:47.810Z,1007.55
2022-11-25T09:17:48.347Z,1007.57
2022-11-25T09:18:54.068Z,1007.57
2022-11-25T09:19:48.242Z,1007.58
2022-11-25T09:20:47.806Z,1007.56
2022-11-25T09:21:48.647Z,1007.55
2022-11-25T09:22:47.900Z,1007.61
2022-11-25T09:24:49.520Z,1007.58
2022-11-25T09:25:47.820Z,1007.59
2022-11-25T09:26:49.089Z,1007.61
2022-11-25T09:27:48.451Z,1007.60
2022-11-25T09:28:47.757Z,1007.60
2022-11-25T09:29:47.778Z,1007.61
2022-11-25T09:30:47.888Z,1007.59
2022-11-25T09:31:53.158Z,1007.62
2022-11-25T09:32:48.028Z,1007.65
2022-11-25T09:33:47.730Z,1007.67
2022-11-25T09:34:47.804Z,1007.72
2022-11-25T09:35:47.791Z,1007.69
2022-11-25T09:36:47.730Z,1007.72
2022-11-25T09:37:47.908Z,1007.71
2022-11-25T09:38:47.724Z,1007.77
2022-11-25T09:39:47.713Z,1007.74
2022-11-25T09:40:47.727Z,1007.75
2022-11-25T09:41:47.775Z,1007.78
2022-11-25T09:42:47.767Z,1007.75
2022-11-25T09:43:47.780Z,1007.76
2022-11-25T09:44:47.912Z,1007.72
2022-11-25T09:45:47.683Z,1007.75
2022-11-25T09:46:47.778Z,1007.76
2022-11-25T09:47:50.616Z,1007.77
2022-11-25T09:48:47.756Z,1007.76
2022-11-25T09:49:47.746Z,1007.75
2022-11-25T09:50:47.814Z,1007.78
2022-11-25T09:51:47.721Z,1007.79
2022-11-25T09:52:47.710Z,1007.82
2022-11-25T09:53:47.675Z,1007.78
2022-11-25T09:54:47.658Z,1007.78
2022-11-25T09:55:47.702Z,1007.79
2022-11-25T09:56:47.668Z,1007.80
2022-11-25T09:58:47.889Z,1007.83
2022-11-25T09:59:47.640Z,1007.84
2022-11-25T10:00:47.770Z,1007.83
2022-11-25T10:01:47.800Z,1007.81
2022-11-25T10:02:47.733Z,1007.87
2022-11-25T10:13:56.148Z,1007.93
2022-11-25T10:14:49.213Z,1007.95
2022-11-25T10:15:48.782Z,1007.95
2022-11-25T10:16:51.566Z,1007.97
2022-11-25T10:17:48.838Z,1007.93
2022-11-25T10:18:49.119Z,1007.93
2022-11-25T10:19:48.732Z,1007.92
2022-11-25T10:20:48.886Z,1007.94
2022-11-25T10:21:48.768Z,1007.92
2022-11-25T10:22:48.749Z,1008.03
2022-11-25T10:23:48.749Z,1008.03
2022-11-25T10:24:54.616Z,1008.02
2022-11-25T10:25:48.780Z,1008.04
2022-11-25T10:26:48.696Z,1007.99
2022-11-25T10:27:48.773Z,1008.02
2022-11-25T10:28:49.996Z,1008.02
2022-11-25T10:29:52.110Z,1007.99
2022-11-25T10:30:48.841Z,1008.05
2022-11-25T10:31:49.701Z,1008.01
2022-11-25T10:37:20.284Z,1008.06
2022-11-25T10:38:19.943Z,1008.06
2022-11-25T10:39:19.381Z,1008.01
2022-11-25T10:40:19.704Z,1008.02
2022-11-25T10:41:20.313Z,1008.08
2022-11-25T10:42:20.420Z,1008.07
2022-11-25T10:43:19.446Z,1008.08
2022-11-25T10:44:22.318Z,1008.10
2022-11-25T10:45:25.925Z,1008.09
2022-11-25T10:46:19.428Z,1008.12
2022-11-25T10:47:20.066Z,1008.14
2022-11-25T10:48:34.066Z,1008.14
2022-11-25T10:49:19.545Z,1008.16
2022-11-25T10:50:20.059Z,1008.23
2022-11-25T10:51:25.871Z,1008.25
2022-11-25T10:52:19.298Z,1008.24
2022-11-25T10:53:19.286Z,1008.31
2022-11-25T10:54:25.608Z,1008.31
2022-11-25T10:55:19.156Z,1008.34
2022-11-25T10:56:19.123Z,1008.33
2022-11-25T10:57:19.172Z,1008.38
2022-11-25T10:58:19.162Z,1008.40
2022-11-25T10:59:19.113Z,1008.40
2022-11-25T11:00:19.145Z,1008.41
2022-11-25T11:01:19.176Z,1008.41
2022-11-25T11:02:19.330Z,1008.44
2022-11-25T11:03:19.183Z,1008.46
2022-11-25T11:04:19.117Z,1008.38
2022-11-25T11:05:19.113Z,1008.44
2022-11-25T11:06:19.096Z,1008.40
2022-11-25T11:07:19.169Z,1008.47
2022-11-25T11:08:19.129Z,1008.43
2022-11-25T11:09:19.187Z,1008.42
2022-11-25T11:10:19.101Z,1008.46
2022-11-25T11:11:19.081Z,1008.44
2022-11-25T11:12:19.119Z,1008.44
2022-11-25T11:13:19.098Z,1008.47
2022-11-25T11:14:19.105Z,1008.42
2022-11-25T11:15:19.076Z,1008.50
2022-11-25T11:16:19.096Z,1008.51
2022-11-25T11:17:19.166Z,1008.53
2022-11-25T11:18:19.080Z,1008.45
2022-11-25T11:19:19.070Z,1008.53
2022-11-25T11:20:19.063Z,1008.49
2022-11-25T11:21:19.073Z,1008.49
2022-11-25T11:22:19.072Z,1008.48
2022-11-25T11:23:19.060Z,1008.47
2022-11-25T11:24:19.064Z,1008.52
2022-11-25T11:25:19.049Z,1008.50
2022-11-25T11:26:19.050Z,1008.54
2022-11-25T11:27:19.064Z,1008.51
2022-11-25T11:28:19.155Z,1008.55
2022-11-25T11:29:19.058Z,1008.58
2022-11-25T11:30:19.121Z,1008.61
2022-11-25T11:31:19.212Z,1008.60
2022-11-25T11:32:19.947Z,1008.60
2022-11-25T11:33:19.076Z,1008.65
2022-11-25T11:34:20.196Z,1008.61
2022-11-25T11:35:22.905Z,1008.62
2022-11-25T11:36:19.159Z,1008.61
2022-11-25T11:37:19.231Z,1008.67
2022-11-25T11:38:19.026Z,1008.69
2022-11-25T11:39:19.026Z,1008.67
2022-11-25T11:40:19.874Z,1008.69
2022-11-25T11:41:19.064Z,1008.69
2022-11-25T11:42:19.040Z,1008.67
2022-11-25T11:43:19.022Z,1008.70
2022-11-25T11:44:19.161Z,1008.69
2022-11-25T11:45:19.017Z,1008.68
2022-11-25T11:46:19.065Z,1008.71
2022-11-25T11:47:19.024Z,1008.72
2022-11-25T11:48:19.024Z,1008.72
2022-11-25T11:49:19.043Z,1008.78
2022-11-25T11:50:19.098Z,1008.80
2022-11-25T11:51:19.027Z,1008.83
2022-11-25T11:52:19.015Z,1008.81
2022-11-25T11:53:19.021Z,1008.81
2022-11-25T11:54:19.015Z,1008.80
2022-11-25T11:55:19.019Z,1008.80
2022-11-25T11:56:34.763Z,1008.82
2022-11-25T11:57:19.012Z,1008.83
2022-11-25T11:58:19.021Z,1008.82
2022-11-25T11:59:18.997Z,1008.85
2022-11-25T12:00:19.043Z,1008.84
2022-11-25T12:01:19.013Z,1008.87
2022-11-25T12:02:19.075Z,1008.85
2022-11-25T12:03:19.108Z,1008.84
2022-11-25T12:04:19.027Z,1008.87
2022-11-25T12:05:19.007Z,1008.88
2022-11-25T12:06:19.003Z,1008.88
2022-11-25T12:07:19.105Z,1008.89
2022-11-25T12:08:19.009Z,1008.90
2022-11-25T12:09:19.068Z,1008.92
2022-11-25T12:10:19.001Z,1008.92
2022-11-25T12:11:19.079Z,1008.93
2022-11-25T12:12:19.014Z,1008.93
2022-11-25T12:13:19.050Z,1008.89
2022-11-25T12:14:19.023Z,1008.93
2022-11-25T12:46:22.016Z,1009.22
2022-11-25T12:47:21.903Z,1009.24
2022-11-25T12:48:21.893Z,1009.29
2022-11-25T12:49:21.893Z,1009.28
2022-11-25T12:50:21.887Z,1009.27
2022-11-25T12:51:21.889Z,1009.29
2022-11-25T12:52:21.892Z,1009.30
2022-11-25T12:53:21.899Z,1009.30
2022-11-25T12:54:21.900Z,1009.25
2022-11-25T12:55:24.451Z,1009.27
2022-11-25T12:56:21.902Z,1009.31
2022-11-25T12:57:21.897Z,1009.31
2022-11-25T12:58:22.028Z,1009.33
2022-11-25T12:59:21.914Z,1009.35
2022-11-25T13:01:21.990Z,1009.41
2022-11-25T13:02:22.021Z,1009.39
2022-11-25T13:03:21.910Z,1009.39
2022-11-25T13:04:21.894Z,1009.42
2022-11-25T13:05:41.521Z,1009.46
2022-11-25T13:06:21.925Z,1009.48
2022-11-25T13:07:21.942Z,1009.46
2022-11-25T13:08:21.921Z,1009.51
2022-11-25T13:09:21.911Z,1009.50
2022-11-25T13:10:21.892Z,1009.50
2022-11-25T13:11:22.211Z,1009.51
2022-11-25T13:12:22.225Z,1009.50
2022-11-25T13:13:22.292Z,1009.53
2022-11-25T13:14:22.312Z,1009.51
2022-11-25T13:15:22.574Z,1009.54
2022-11-25T13:16:22.460Z,1009.57
2022-11-25T13:17:22.661Z,1009.52
2022-11-25T13:18:22.029Z,1009.55
2022-11-25T13:19:21.896Z,1009.56
2022-11-25T13:20:21.896Z,1009.55
2022-11-25T13:21:21.894Z,1009.54
2022-11-25T13:22:21.887Z,1009.56
2022-11-25T13:23:21.888Z,1009.51
2022-11-25T13:24:21.896Z,1009.50
2022-11-25T13:25:21.889Z,1009.53
2022-11-25T13:26:21.883Z,1009.54
2022-11-25T13:27:21.901Z,1009.54
2022-11-25T13:28:21.899Z,1009.57
2022-11-25T13:29:21.887Z,1009.56
2022-11-25T13:30:21.893Z,1009.64
2022-11-25T13:31:21.976Z,1009.62
2022-11-25T13:32:21.885Z,1009.61
2022-11-25T13:33:21.915Z,1009.60
2022-11-25T13:34:22.006Z,1009.62
2022-11-25T13:35:21.895Z,1009.67
2022-11-25T13:36:21.887Z,1009.72
2022-11-25T13:37:21.902Z,1009.69
2022-11-25T13:38:21.887Z,1009.75
2022-11-25T13:39:21.897Z,1009.70
2022-11-25T13:40:21.889Z,1009.71
2022-11-25T13:41:21.881Z,1009.71
2022-11-25T13:42:21.891Z,1009.73
2022-11-25T13:43:21.892Z,1009.75
2022-11-25T13:44:21.887Z,1009.76
2022-11-25T13:45:21.929Z,1009.76
2022-11-25T13:46:21.897Z,1009.77
2022-11-25T13:47:21.896Z,1009.78
2022-11-25T13:48:21.914Z,1009.80
2022-11-25T13:49:21.887Z,1009.83
2022-11-25T13:50:22.530Z,1009.82
2022-11-25T13:51:21.894Z,1009.85
2022-11-25T13:52:21.908Z,1009.90
2022-11-25T13:53:21.889Z,1009.87
2022-11-25T13:54:21.893Z,1009.90
2022-11-25T13:55:21.881Z,1009.91
2022-11-25T13:56:21.895Z,1009.93
2022-11-25T13:57:21.901Z,1009.93
2022-11-25T13:58:21.897Z,1009.94
2022-11-25T13:59:21.889Z,1009.94
2022-11-25T14:00:21.876Z,1009.97
2022-11-25T14:01:26.310Z,1009.99
2022-11-25T14:02:22.025Z,1010.01
2022-11-25T14:03:21.947Z,1010.04
2022-11-25T14:04:21.879Z,1010.07
2022-11-25T14:05:21.871Z,1010.13
2022-11-25T14:06:21.899Z,1010.17
2022-11-25T14:07:21.911Z,1010.16
2022-11-25T14:08:21.907Z,1010.17
2022-11-25T14:09:21.867Z,1010.20
2022-11-25T14:10:21.868Z,1010.18
2022-11-25T14:11:21.874Z,1010.24
2022-11-25T14:12:21.884Z,1010.26
2022-11-25T14:13:21.869Z,1010.28
2022-11-25T14:14:21.885Z,1010.27
2022-11-25T14:15:21.866Z,1010.30
2022-11-25T14:16:21.899Z,1010.29
2022-11-25T14:17:21.868Z,1010.29
2022-11-25T14:18:36.874Z,1010.34
2022-11-25T14:19:50.133Z,1010.28
2022-11-25T14:20:21.863Z,1010.29
2022-11-25T14:21:21.869Z,1010.33
2022-11-25T14:22:21.868Z,1010.32
2022-11-25T14:23:22.872Z,1010.36
2022-11-25T14:24:21.869Z,1010.34
2022-11-25T14:25:21.862Z,1010.37
2022-11-25T14:26:48.068Z,1010.41
2022-11-25T14:27:21.852Z,1010.40
2022-11-25T14:28:21.845Z,1010.44
2022-11-25T14:29:21.862Z,1010.42
2022-11-25T14:30:21.852Z,1010.44
2022-11-25T14:31:21.895Z,1010.44
2022-11-25T14:32:21.845Z,1010.45
2022-11-25T14:33:21.857Z,1010.46
2022-11-25T14:34:21.936Z,1010.49
2022-11-25T14:35:21.842Z,1010.52
2022-11-25T14:36:21.839Z,1010.48
2022-11-25T14:37:21.852Z,1010.50
2022-11-25T14:38:21.884Z,1010.49
2022-11-25T14:39:21.829Z,1010.52
2022-11-25T14:40:21.833Z,1010.51
2022-11-25T14:41:21.837Z,1010.49
2022-11-25T14:42:22.002Z,1010.50
2022-11-25T14:43:21.825Z,1010.56
2022-11-25T14:44:21.829Z,1010.62
2022-11-25T14:45:21.994Z,1010.61
2022-11-25T14:46:21.862Z,1010.62
2022-11-25T14:47:21.810Z,1010.62
2022-11-25T14:48:21.830Z,1010.64
2022-11-25T14:50:37.933Z,1010.67
2022-11-25T14:51:21.812Z,1010.68
2022-11-25T14:52:21.805Z,1010.67
2022-11-25T14:53:21.815Z,1010.68
2022-11-25T14:54:21.810Z,1010.65
2022-11-25T14:55:21.809Z,1010.72
2022-11-25T14:56:21.792Z,1010.71
2022-11-25T14:57:21.854Z,1010.74
2022-11-25T14:58:21.833Z,1010.74
2022-11-25T14:59:21.801Z,1010.78
2022-11-25T15:00:21.782Z,1010.77
2022-11-25T15:01:21.791Z,1010.82
2022-11-25T15:02:21.879Z,1010.79
2022-11-25T15:03:21.770Z,1010.83
2022-11-25T15:04:21.829Z,1010.84
2022-11-25T15:05:21.773Z,1010.85
2022-11-25T15:06:21.767Z,1010.87
2022-11-25T15:07:26.301Z,1010.84
2022-11-25T15:08:21.769Z,1010.85
2022-11-25T15:09:21.757Z,1010.87
2022-11-25T15:10:21.763Z,1010.85
2022-11-25T15:11:21.756Z,1010.85
2022-11-25T15:12:21.763Z,1010.86
2022-11-25T15:13:21.752Z,1010.86
2022-11-25T15:14:21.746Z,1010.92
2022-11-25T15:15:21.767Z,1010.89
2022-11-25T15:16:21.824Z,1010.92
2022-11-25T15:17:21.747Z,1010.94
2022-11-25T15:18:21.742Z,1010.93
2022-11-25T15:19:21.733Z,1010.93
2022-11-25T15:20:21.725Z,1010.95
2022-11-25T15:21:21.748Z,1010.97
2022-11-25T15:22:23.566Z,1011.01
2022-11-25T15:23:21.716Z,1011.00
2022-11-25T15:24:21.717Z,1011.02
2022-11-25T15:25:21.742Z,1011.03
2022-11-25T15:26:21.719Z,1011.01
2022-11-25T15:27:21.709Z,1011.06
2022-11-25T15:28:21.701Z,1011.10
2022-11-25T15:29:21.694Z,1011.12
2022-11-25T15:30:21.703Z,1011.10
2022-11-25T15:31:21.745Z,1011.08
2022-11-25T15:32:21.695Z,1011.14
2022-11-25T15:33:21.683Z,1011.11
2022-11-25T15:34:21.708Z,1011.16
2022-11-25T15:35:21.678Z,1011.12
2022-11-25T15:36:21.672Z,1011.14
2022-11-25T15:37:21.677Z,1011.16
2022-11-25T15:38:21.664Z,1011.18
2022-11-25T15:39:21.664Z,1011.21
2022-11-25T15:40:21.657Z,1011.20
2022-11-25T15:41:21.657Z,1011.24
2022-11-25T15:42:21.671Z,1011.28
2022-11-25T15:43:21.652Z,1011.29
2022-11-25T15:44:21.659Z,1011.29
2022-11-25T15:45:21.645Z,1011.33
2022-11-25T15:46:21.702Z,1011.33
2022-11-25T15:47:21.639Z,1011.39
2022-11-25T15:48:21.648Z,1011.38
2022-11-25T15:49:21.632Z,1011.41
2022-11-25T15:50:21.622Z,1011.42
2022-11-25T15:51:21.616Z,1011.44
2022-11-25T15:52:21.622Z,1011.43
2022-11-25T15:53:24.795Z,1011.45
2022-11-25T15:54:21.611Z,1011.47
2022-11-25T15:55:21.606Z,1011.48
2022-11-25T15:56:21.655Z,1011.50
2022-11-25T15:57:21.621Z,1011.51
2022-11-25T15:58:21.619Z,1011.58
2022-11-25T15:59:21.607Z,1011.56
2022-11-25T16:00:21.590Z,1011.59
2022-11-25T16:01:21.675Z,1011.59
2022-11-25T16:13:06.305Z,1011.81
2022-11-25T16:14:06.316Z,1011.85
2022-11-25T16:15:06.280Z,1011.86
2022-11-25T16:16:06.303Z,1011.83
2022-11-25T16:17:06.364Z,1011.83
2022-11-25T16:18:24.844Z,1011.89
2022-11-25T16:19:06.256Z,1011.89
2022-11-25T16:20:06.263Z,1011.90
2022-11-25T16:21:06.249Z,1011.91
2022-11-25T16:22:06.242Z,1011.93
2022-11-25T16:23:06.299Z,1011.97
2022-11-25T16:24:06.244Z,1012.00
2022-11-25T16:25:06.229Z,1011.95
2022-11-25T16:26:06.223Z,1011.96
2022-11-25T16:27:06.329Z,1011.97
2022-11-25T16:28:06.221Z,1012.03
2022-11-25T16:29:06.236Z,1012.04
2022-11-25T16:30:06.235Z,1012.05
2022-11-25T16:31:06.213Z,1012.07
2022-11-25T16:32:06.304Z,1012.06
2022-11-25T16:33:06.195Z,1012.02
2022-11-25T16:34:06.188Z,1012.09
2022-11-25T16:35:06.185Z,1012.09
2022-11-25T16:36:09.513Z,1012.12
2022-11-25T16:37:06.189Z,1012.16
2022-11-25T16:38:06.181Z,1012.14
2022-11-25T16:39:06.168Z,1012.10
2022-11-25T16:40:06.168Z,1012.17
2022-11-25T16:41:06.169Z,1012.20
2022-11-25T16:42:06.175Z,1012.19
2022-11-25T16:43:06.162Z,1012.22
2022-11-25T16:44:09.035Z,1012.20
2022-11-25T16:45:06.146Z,1012.24
2022-11-25T16:46:06.232Z,1012.23
2022-11-25T16:47:06.162Z,1012.29
2022-11-25T16:48:06.145Z,1012.30
2022-11-25T16:49:06.134Z,1012.31
2022-11-25T16:50:09.884Z,1012.36
2022-11-25T16:51:06.121Z,1012.35
2022-11-25T16:52:06.121Z,1012.40
2022-11-25T16:53:06.130Z,1012.42
2022-11-25T16:54:06.114Z,1012.39
2022-11-25T16:55:06.113Z,1012.39
2022-11-25T16:56:06.109Z,1012.41
2022-11-25T16:57:06.102Z,1012.41
2022-11-25T16:58:06.106Z,1012.39
2022-11-25T16:59:06.097Z,1012.46
2022-11-25T17:00:06.116Z,1012.48
2022-11-25T17:01:06.100Z,1012.50
2022-11-25T17:02:06.247Z,1012.52
2022-11-25T17:03:06.144Z,1012.49
2022-11-25T17:04:06.080Z,1012.51
2022-11-25T17:05:06.079Z,1012.53
2022-11-25T17:06:06.087Z,1012.58
2022-11-25T17:07:33.878Z,1012.57
2022-11-25T17:08:06.171Z,1012.62
2022-11-25T17:09:06.055Z,1012.63